Weather at Phoenix Sky Harbor International Airport

Public forecast

Using degrees Fahrenheit for public forecast. Weather courtesy of forecast.io.

Current aviation weather report (METAR) for Phoenix Sky Harbor International Airport

Retrieved 2020/10/30 23:51 UTC (18 minutes ago):

KPHX 302351Z 00000KT 10SM FEW200 BKN250 BKN290 29/M01 A2989 RMK AO2 SLP110 T02941006 10306 20267 56016

Aviation forecast (TAF) for Phoenix Sky Harbor International Airport

Retrieved 2020-10-31 00:39 UTC (0 seconds ago):

TAF KPHX 302337Z 3100/0106 VRB04KT P6SM FEW200 BKN250 FM310700 10004KT P6SM BKN220 FM312100 26005KT P6SM FEW250 FM010400 09004KT P6SM BKN250